sensor_id;sensor_type;location;lat;lon;timestamp;pressure;altitude;pressure_sealevel;temperature;humidity
12182;BME280;6154;51.550;12.138;2023-04-10T00:00:41;101442.59;;;10.35;48.94
12182;BME280;6154;51.550;12.138;2023-04-10T00:03:11;101439.16;;;10.33;49.65
12182;BME280;6154;51.550;12.138;2023-04-10T00:05:40;101441.81;;;10.32;48.37
12182;BME280;6154;51.550;12.138;2023-04-10T00:08:08;101438.44;;;10.28;49.13
12182;BME280;6154;51.550;12.138;2023-04-10T00:10:36;101442.81;;;10.29;48.28
12182;BME280;6154;51.550;12.138;2023-04-10T00:13:05;101435.88;;;10.27;48.21
12182;BME280;6154;51.550;12.138;2023-04-10T00:15:34;101434.16;;;10.26;48.40
12182;BME280;6154;51.550;12.138;2023-04-10T00:18:02;101434.25;;;10.21;48.48
12182;BME280;6154;51.550;12.138;2023-04-10T00:20:30;101436.09;;;10.19;48.49
12182;BME280;6154;51.550;12.138;2023-04-10T00:22:58;101436.22;;;10.16;48.44
12182;BME280;6154;51.550;12.138;2023-04-10T00:25:27;101439.81;;;10.15;48.39
12182;BME280;6154;51.550;12.138;2023-04-10T00:27:55;101446.94;;;10.13;48.33
12182;BME280;6154;51.550;12.138;2023-04-10T00:30:24;101442.50;;;10.14;48.68
12182;BME280;6154;51.550;12.138;2023-04-10T00:32:52;101444.38;;;10.10;48.42
12182;BME280;6154;51.550;12.138;2023-04-10T00:35:20;101433.00;;;10.08;48.59
12182;BME280;6154;51.550;12.138;2023-04-10T00:37:49;101425.19;;;10.05;48.56
12182;BME280;6154;51.550;12.138;2023-04-10T00:40:17;101433.22;;;10.02;48.79
12182;BME280;6154;51.550;12.138;2023-04-10T00:42:45;101428.03;;;9.99;48.54
12182;BME280;6154;51.550;12.138;2023-04-10T00:45:16;101424.59;;;9.97;48.79
12182;BME280;6154;51.550;12.138;2023-04-10T00:47:47;101415.94;;;9.93;48.38
12182;BME280;6154;51.550;12.138;2023-04-10T00:50:16;101411.50;;;9.94;48.18
12182;BME280;6154;51.550;12.138;2023-04-10T00:52:44;101408.03;;;9.92;48.30
12182;BME280;6154;51.550;12.138;2023-04-10T00:55:13;101413.31;;;9.92;48.73
12182;BME280;6154;51.550;12.138;2023-04-10T00:57:43;101416.03;;;9.90;48.49
12182;BME280;6154;51.550;12.138;2023-04-10T01:00:12;101418.66;;;9.90;48.26
12182;BME280;6154;51.550;12.138;2023-04-10T01:02:41;101412.50;;;9.90;48.37
12182;BME280;6154;51.550;12.138;2023-04-10T01:05:11;101416.06;;;9.89;48.04
12182;BME280;6154;51.550;12.138;2023-04-10T01:07:50;101410.78;;;9.89;48.80
12182;BME280;6154;51.550;12.138;2023-04-10T01:10:28;101408.22;;;9.87;48.91
12182;BME280;6154;51.550;12.138;2023-04-10T01:13:05;101406.63;;;9.82;48.85
12182;BME280;6154;51.550;12.138;2023-04-10T01:15:41;101410.25;;;9.79;49.46
12182;BME280;6154;51.550;12.138;2023-04-10T01:18:16;101412.09;;;9.77;49.91
12182;BME280;6154;51.550;12.138;2023-04-10T01:20:47;101411.28;;;9.75;50.22
12182;BME280;6154;51.550;12.138;2023-04-10T01:23:40;101406.09;;;9.72;49.63
12182;BME280;6154;51.550;12.138;2023-04-10T01:26:11;101406.16;;;9.70;51.07
12182;BME280;6154;51.550;12.138;2023-04-10T01:28:55;101404.56;;;9.66;49.59
12182;BME280;6154;51.550;12.138;2023-04-10T01:31:35;101406.41;;;9.64;50.02
12182;BME280;6154;51.550;12.138;2023-04-10T01:34:06;101404.75;;;9.60;49.23
12182;BME280;6154;51.550;12.138;2023-04-10T01:36:39;101414.69;;;9.54;49.12
12182;BME280;6154;51.550;12.138;2023-04-10T01:39:13;101417.59;;;9.46;49.46
12182;BME280;6154;51.550;12.138;2023-04-10T01:41:45;101409.00;;;9.39;49.47
12182;BME280;6154;51.550;12.138;2023-04-10T01:44:17;101406.53;;;9.35;49.54
12182;BME280;6154;51.550;12.138;2023-04-10T01:46:48;101404.91;;;9.31;49.68
12182;BME280;6154;51.550;12.138;2023-04-10T01:49:17;101406.00;;;9.25;49.35
12182;BME280;6154;51.550;12.138;2023-04-10T01:51:47;101406.25;;;9.17;49.29
12182;BME280;6154;51.550;12.138;2023-04-10T01:54:16;101408.25;;;9.09;49.90
12182;BME280;6154;51.550;12.138;2023-04-10T01:56:45;101411.94;;;9.05;50.30
12182;BME280;6154;51.550;12.138;2023-04-10T01:59:16;101410.22;;;9.04;50.05
12182;BME280;6154;51.550;12.138;2023-04-10T02:01:44;101407.56;;;9.04;49.88
12182;BME280;6154;51.550;12.138;2023-04-10T02:04:13;101404.13;;;9.02;49.78
12182;BME280;6154;51.550;12.138;2023-04-10T02:06:49;101406.75;;;9.02;49.47
12182;BME280;6154;51.550;12.138;2023-04-10T02:09:27;101404.16;;;9.01;49.41
12182;BME280;6154;51.550;12.138;2023-04-10T02:12:01;101407.81;;;8.97;49.39
12182;BME280;6154;51.550;12.138;2023-04-10T02:14:35;101396.53;;;8.91;49.40
12182;BME280;6154;51.550;12.138;2023-04-10T02:17:05;101401.06;;;8.88;49.26
12182;BME280;6154;51.550;12.138;2023-04-10T02:19:36;101401.84;;;8.90;49.28
12182;BME280;6154;51.550;12.138;2023-04-10T02:22:05;101401.81;;;8.91;48.77
12182;BME280;6154;51.550;12.138;2023-04-10T02:24:34;101399.84;;;8.98;48.73
12182;BME280;6154;51.550;12.138;2023-04-10T02:27:03;101394.44;;;9.01;48.56
12182;BME280;6154;51.550;12.138;2023-04-10T02:29:32;101397.94;;;9.03;48.37
12182;BME280;6154;51.550;12.138;2023-04-10T02:32:02;101395.28;;;9.03;48.39
12182;BME280;6154;51.550;12.138;2023-04-10T02:34:30;101395.22;;;9.05;48.26
12182;BME280;6154;51.550;12.138;2023-04-10T02:36:58;101398.56;;;9.10;48.82
12182;BME280;6154;51.550;12.138;2023-04-10T02:39:28;101403.78;;;9.11;48.52
12182;BME280;6154;51.550;12.138;2023-04-10T02:41:56;101411.72;;;9.11;48.36
12182;BME280;6154;51.550;12.138;2023-04-10T02:44:24;101414.47;;;9.08;48.54
12182;BME280;6154;51.550;12.138;2023-04-10T02:46:54;101410.09;;;9.07;48.33
12182;BME280;6154;51.550;12.138;2023-04-10T02:49:22;101411.06;;;9.05;48.43
12182;BME280;6154;51.550;12.138;2023-04-10T02:51:50;101418.12;;;9.04;48.71
12182;BME280;6154;51.550;12.138;2023-04-10T02:54:18;101414.69;;;9.01;48.83
12182;BME280;6154;51.550;12.138;2023-04-10T02:56:47;101415.69;;;8.98;49.19
12182;BME280;6154;51.550;12.138;2023-04-10T02:59:15;101413.19;;;8.93;49.06
12182;BME280;6154;51.550;12.138;2023-04-10T03:01:45;101419.41;;;8.91;50.01
12182;BME280;6154;51.550;12.138;2023-04-10T03:04:15;101422.97;;;8.90;50.35
12182;BME280;6154;51.550;12.138;2023-04-10T03:06:43;101422.28;;;8.85;49.97
12182;BME280;6154;51.550;12.138;2023-04-10T03:09:12;101424.19;;;8.80;51.10
12182;BME280;6154;51.550;12.138;2023-04-10T03:11:40;101425.09;;;8.79;51.33
12182;BME280;6154;51.550;12.138;2023-04-10T03:14:08;101416.31;;;8.78;50.25
12182;BME280;6154;51.550;12.138;2023-04-10T03:16:36;101419.81;;;8.79;49.77
12182;BME280;6154;51.550;12.138;2023-04-10T03:19:05;101417.28;;;8.76;50.60
12182;BME280;6154;51.550;12.138;2023-04-10T03:21:34;101412.09;;;8.73;49.85
12182;BME280;6154;51.550;12.138;2023-04-10T03:24:03;101410.41;;;8.70;49.40
12182;BME280;6154;51.550;12.138;2023-04-10T03:26:32;101418.28;;;8.72;49.09
12182;BME280;6154;51.550;12.138;2023-04-10T03:29:00;101410.34;;;8.73;48.93
12182;BME280;6154;51.550;12.138;2023-04-10T03:31:28;101413.00;;;8.72;49.67
12182;BME280;6154;51.550;12.138;2023-04-10T03:33:57;101415.69;;;8.70;49.05
12182;BME280;6154;51.550;12.138;2023-04-10T03:36:25;101414.78;;;8.71;49.20
12182;BME280;6154;51.550;12.138;2023-04-10T03:38:55;101417.41;;;8.71;50.18
12182;BME280;6154;51.550;12.138;2023-04-10T03:41:23;101413.09;;;8.69;50.36
12182;BME280;6154;51.550;12.138;2023-04-10T03:43:52;101413.97;;;8.69;49.15
12182;BME280;6154;51.550;12.138;2023-04-10T03:46:20;101414.81;;;8.70;48.94
12182;BME280;6154;51.550;12.138;2023-04-10T03:48:49;101407.81;;;8.69;49.29
12182;BME280;6154;51.550;12.138;2023-04-10T03:51:20;101408.78;;;8.66;49.64
12182;BME280;6154;51.550;12.138;2023-04-10T03:53:50;101411.47;;;8.64;49.58
12182;BME280;6154;51.550;12.138;2023-04-10T03:56:20;101406.09;;;8.68;50.27
12182;BME280;6154;51.550;12.138;2023-04-10T03:58:48;101405.19;;;8.69;51.28
12182;BME280;6154;51.550;12.138;2023-04-10T04:01:19;101407.00;;;8.67;52.40
12182;BME280;6154;51.550;12.138;2023-04-10T04:03:51;101409.75;;;8.63;52.28
12182;BME280;6154;51.550;12.138;2023-04-10T04:06:23;101403.75;;;8.58;52.48
12182;BME280;6154;51.550;12.138;2023-04-10T04:08:52;101400.56;;;8.47;53.77
12182;BME280;6154;51.550;12.138;2023-04-10T04:11:22;101397.25;;;8.41;54.02
12182;BME280;6154;51.550;12.138;2023-04-10T04:13:50;101403.50;;;8.38;54.15
12182;BME280;6154;51.550;12.138;2023-04-10T04:16:22;101402.72;;;8.34;54.68
12182;BME280;6154;51.550;12.138;2023-04-10T04:18:50;101400.09;;;8.33;54.49
12182;BME280;6154;51.550;12.138;2023-04-10T04:21:18;101403.50;;;8.38;52.13
12182;BME280;6154;51.550;12.138;2023-04-10T04:23:47;101398.22;;;8.38;51.78
12182;BME280;6154;51.550;12.138;2023-04-10T04:26:22;101405.22;;;8.39;51.62
12182;BME280;6154;51.550;12.138;2023-04-10T04:28:51;101412.31;;;8.37;51.20
12182;BME280;6154;51.550;12.138;2023-04-10T04:31:19;101412.31;;;8.37;51.28
12182;BME280;6154;51.550;12.138;2023-04-10T04:33:47;101415.88;;;8.36;51.19
12182;BME280;6154;51.550;12.138;2023-04-10T04:36:18;101415.81;;;8.38;50.85
12182;BME280;6154;51.550;12.138;2023-04-10T04:38:50;101414.03;;;8.38;50.32
12182;BME280;6154;51.550;12.138;2023-04-10T04:41:23;101413.94;;;8.41;50.24
12182;BME280;6154;51.550;12.138;2023-04-10T04:43:52;101421.72;;;8.46;50.05
12182;BME280;6154;51.550;12.138;2023-04-10T04:46:22;101415.47;;;8.48;50.37
12182;BME280;6154;51.550;12.138;2023-04-10T04:48:50;101415.38;;;8.51;50.30
12182;BME280;6154;51.550;12.138;2023-04-10T04:51:19;101415.31;;;8.54;49.98
12182;BME280;6154;51.550;12.138;2023-04-10T04:53:47;101412.56;;;8.57;50.37
12182;BME280;6154;51.550;12.138;2023-04-10T04:56:20;101422.22;;;8.58;50.47
12182;BME280;6154;51.550;12.138;2023-04-10T04:58:50;101421.25;;;8.61;50.55
12182;BME280;6154;51.550;12.138;2023-04-10T05:01:19;101414.13;;;8.64;50.23
12182;BME280;6154;51.550;12.138;2023-04-10T05:03:49;101416.53;;;8.71;50.12
12182;BME280;6154;51.550;12.138;2023-04-10T05:06:18;101410.22;;;8.76;50.05
12182;BME280;6154;51.550;12.138;2023-04-10T05:08:47;101407.44;;;8.81;49.89
12182;BME280;6154;51.550;12.138;2023-04-10T05:11:17;101402.81;;;8.87;49.61
12182;BME280;6154;51.550;12.138;2023-04-10T05:13:49;101411.41;;;8.94;49.65
12182;BME280;6154;51.550;12.138;2023-04-10T05:16:20;101398.88;;;9.01;50.05
12182;BME280;6154;51.550;12.138;2023-04-10T05:18:49;101404.81;;;9.07;50.93
12182;BME280;6154;51.550;12.138;2023-04-10T05:21:18;101409.03;;;9.13;50.68
12182;BME280;6154;51.550;12.138;2023-04-10T05:23:47;101411.41;;;9.20;50.67
12182;BME280;6154;51.550;12.138;2023-04-10T05:26:15;101413.84;;;9.27;50.94
12182;BME280;6154;51.550;12.138;2023-04-10T05:28:45;101410.16;;;9.32;52.22
12182;BME280;6154;51.550;12.138;2023-04-10T05:31:14;101416.13;;;9.37;52.80
12182;BME280;6154;51.550;12.138;2023-04-10T05:33:43;101416.63;;;9.48;51.91
12182;BME280;6154;51.550;12.138;2023-04-10T05:36:12;101412.69;;;9.60;51.71
12182;BME280;6154;51.550;12.138;2023-04-10T05:38:40;101415.00;;;9.69;51.77
12182;BME280;6154;51.550;12.138;2023-04-10T05:41:09;101419.00;;;9.81;51.22
12182;BME280;6154;51.550;12.138;2023-04-10T05:43:37;101420.37;;;9.91;51.08
12182;BME280;6154;51.550;12.138;2023-04-10T05:46:06;101420.13;;;9.99;50.07
12182;BME280;6154;51.550;12.138;2023-04-10T05:48:37;101418.97;;;10.06;49.93
12182;BME280;6154;51.550;12.138;2023-04-10T05:51:09;101424.84;;;10.14;50.24
12182;BME280;6154;51.550;12.138;2023-04-10T05:53:37;101432.47;;;10.23;50.05
12182;BME280;6154;51.550;12.138;2023-04-10T05:56:10;101425.09;;;10.31;50.53
12182;BME280;6154;51.550;12.138;2023-04-10T05:58:38;101422.06;;;10.42;51.02
12182;BME280;6154;51.550;12.138;2023-04-10T06:01:06;101424.34;;;10.51;51.04
12182;BME280;6154;51.550;12.138;2023-04-10T06:03:36;101430.25;;;10.58;51.82
12182;BME280;6154;51.550;12.138;2023-04-10T06:06:06;101427.13;;;10.70;51.82
12182;BME280;6154;51.550;12.138;2023-04-10T06:08:34;101431.13;;;10.80;51.84
12182;BME280;6154;51.550;12.138;2023-04-10T06:11:03;101424.44;;;10.93;51.54
12182;BME280;6154;51.550;12.138;2023-04-10T06:13:33;101430.16;;;11.05;52.70
12182;BME280;6154;51.550;12.138;2023-04-10T06:16:02;101416.56;;;11.14;52.04
12182;BME280;6154;51.550;12.138;2023-04-10T06:18:30;101420.34;;;11.29;52.42
12182;BME280;6154;51.550;12.138;2023-04-10T06:20:59;101418.16;;;11.38;52.52
12182;BME280;6154;51.550;12.138;2023-04-10T06:23:28;101411.41;;;11.51;52.38
12182;BME280;6154;51.550;12.138;2023-04-10T06:25:57;101418.62;;;11.68;51.91
12182;BME280;6154;51.550;12.138;2023-04-10T06:28:25;101411.78;;;11.85;52.20
12182;BME280;6154;51.550;12.138;2023-04-10T06:30:54;101406.63;;;12.00;52.40
12182;BME280;6154;51.550;12.138;2023-04-10T06:33:27;101409.38;;;12.18;52.47
12182;BME280;6154;51.550;12.138;2023-04-10T06:35:55;101407.69;;;12.35;52.52
12182;BME280;6154;51.550;12.138;2023-04-10T06:38:25;101404.44;;;12.48;53.01
12182;BME280;6154;51.550;12.138;2023-04-10T06:40:53;101408.66;;;12.71;52.36
12182;BME280;6154;51.550;12.138;2023-04-10T06:43:21;101404.94;;;12.92;51.48
12182;BME280;6154;51.550;12.138;2023-04-10T06:45:49;101405.06;;;13.08;51.08
12182;BME280;6154;51.550;12.138;2023-04-10T06:48:17;101405.03;;;13.27;51.99
12182;BME280;6154;51.550;12.138;2023-04-10T06:50:46;101406.78;;;13.45;52.49
12182;BME280;6154;51.550;12.138;2023-04-10T06:53:14;101408.62;;;13.60;52.17
12182;BME280;6154;51.550;12.138;2023-04-10T06:55:43;101401.31;;;13.81;52.05
12182;BME280;6154;51.550;12.138;2023-04-10T06:58:11;101401.06;;;14.03;52.00
12182;BME280;6154;51.550;12.138;2023-04-10T07:00:40;101410.09;;;14.16;51.87
12182;BME280;6154;51.550;12.138;2023-04-10T07:03:08;101404.19;;;14.27;51.33
12182;BME280;6154;51.550;12.138;2023-04-10T07:05:36;101411.41;;;14.41;51.26
12182;BME280;6154;51.550;12.138;2023-04-10T07:08:08;101408.53;;;14.61;51.77
12182;BME280;6154;51.550;12.138;2023-04-10T07:10:37;101409.22;;;14.80;51.39
12182;BME280;6154;51.550;12.138;2023-04-10T07:13:06;101410.75;;;15.00;51.67
12182;BME280;6154;51.550;12.138;2023-04-10T07:15:34;101408.47;;;15.24;51.29
12182;BME280;6154;51.550;12.138;2023-04-10T07:18:02;101412.53;;;15.45;50.94
12182;BME280;6154;51.550;12.138;2023-04-10T07:20:33;101417.03;;;15.59;51.42
12182;BME280;6154;51.550;12.138;2023-04-10T07:23:01;101411.28;;;15.67;51.69
12182;BME280;6154;51.550;12.138;2023-04-10T07:25:29;101406.94;;;15.94;51.16
12182;BME280;6154;51.550;12.138;2023-04-10T07:27:57;101413.78;;;16.13;50.69
12182;BME280;6154;51.550;12.138;2023-04-10T07:30:27;101407.19;;;16.32;51.02
12182;BME280;6154;51.550;12.138;2023-04-10T07:32:55;101406.69;;;16.54;50.73
12182;BME280;6154;51.550;12.138;2023-04-10T07:35:24;101407.53;;;16.69;50.01
12182;BME280;6154;51.550;12.138;2023-04-10T07:37:53;101408.91;;;16.89;50.37
12182;BME280;6154;51.550;12.138;2023-04-10T07:40:21;101402.56;;;17.04;50.35
12182;BME280;6154;51.550;12.138;2023-04-10T07:42:49;101402.19;;;17.23;50.00
12182;BME280;6154;51.550;12.138;2023-04-10T07:45:19;101399.56;;;17.36;50.00
12182;BME280;6154;51.550;12.138;2023-04-10T07:47:49;101403.31;;;17.46;50.00
12182;BME280;6154;51.550;12.138;2023-04-10T07:50:17;101403.97;;;17.62;49.92
12182;BME280;6154;51.550;12.138;2023-04-10T07:52:45;101398.12;;;17.70;49.57
12182;BME280;6154;51.550;12.138;2023-04-10T07:55:13;101387.97;;;17.88;49.54
12182;BME280;6154;51.550;12.138;2023-04-10T07:57:42;101389.97;;;18.09;49.57
12182;BME280;6154;51.550;12.138;2023-04-10T08:00:11;101384.38;;;18.25;49.36
12182;BME280;6154;51.550;12.138;2023-04-10T08:02:41;101385.94;;;18.41;49.23
12182;BME280;6154;51.550;12.138;2023-04-10T08:05:11;101382.66;;;18.61;48.99
12182;BME280;6154;51.550;12.138;2023-04-10T08:07:39;101383.28;;;18.77;49.20
12182;BME280;6154;51.550;12.138;2023-04-10T08:10:08;101380.59;;;19.01;48.83
12182;BME280;6154;51.550;12.138;2023-04-10T08:12:36;101372.75;;;19.22;48.61
12182;BME280;6154;51.550;12.138;2023-04-10T08:15:06;101375.25;;;19.36;48.31
12182;BME280;6154;51.550;12.138;2023-04-10T08:17:34;101363.81;;;19.45;48.20
12182;BME280;6154;51.550;12.138;2023-04-10T08:20:03;101373.13;;;19.64;48.60
12182;BME280;6154;51.550;12.138;2023-04-10T08:22:33;101361.47;;;19.76;47.88
12182;BME280;6154;51.550;12.138;2023-04-10T08:25:02;101354.84;;;19.80;48.01
12182;BME280;6154;51.550;12.138;2023-04-10T08:27:30;101346.91;;;19.90;47.87
12182;BME280;6154;51.550;12.138;2023-04-10T08:29:58;101346.66;;;19.93;47.90
12182;BME280;6154;51.550;12.138;2023-04-10T08:32:27;101344.47;;;20.09;47.88
12182;BME280;6154;51.550;12.138;2023-04-10T08:34:56;101342.00;;;20.28;47.78
12182;BME280;6154;51.550;12.138;2023-04-10T08:37:25;101348.00;;;20.43;47.61
12182;BME280;6154;51.550;12.138;2023-04-10T08:39:54;101340.66;;;20.56;47.60
12182;BME280;6154;51.550;12.138;2023-04-10T08:42:23;101340.12;;;20.62;47.45
12182;BME280;6154;51.550;12.138;2023-04-10T08:44:52;101332.88;;;20.74;47.24
12182;BME280;6154;51.550;12.138;2023-04-10T08:47:22;101332.50;;;20.79;46.91
12182;BME280;6154;51.550;12.138;2023-04-10T08:49:56;101334.66;;;20.96;46.80
12182;BME280;6154;51.550;12.138;2023-04-10T08:52:25;101326.16;;;21.01;46.79
12182;BME280;6154;51.550;12.138;2023-04-10T08:54:56;101330.72;;;21.21;46.27
12182;BME280;6154;51.550;12.138;2023-04-10T08:57:28;101325.50;;;21.40;46.40
12182;BME280;6154;51.550;12.138;2023-04-10T08:59:57;101328.03;;;21.63;46.31
12182;BME280;6154;51.550;12.138;2023-04-10T09:02:37;101320.56;;;21.66;46.04
12182;BME280;6154;51.550;12.138;2023-04-10T09:05:10;101326.84;;;21.76;45.40
12182;BME280;6154;51.550;12.138;2023-04-10T09:07:39;101330.47;;;21.66;45.69
12182;BME280;6154;51.550;12.138;2023-04-10T09:10:09;101333.41;;;21.93;45.68
12182;BME280;6154;51.550;12.138;2023-04-10T09:12:47;101324.34;;;21.94;45.58
12182;BME280;6154;51.550;12.138;2023-04-10T09:15:15;101322.38;;;21.96;43.94
12182;BME280;6154;51.550;12.138;2023-04-10T09:17:54;101319.03;;;21.83;45.72
12182;BME280;6154;51.550;12.138;2023-04-10T09:20:25;101303.34;;;21.88;43.27
12182;BME280;6154;51.550;12.138;2023-04-10T09:22:53;101306.81;;;21.69;43.79
12182;BME280;6154;51.550;12.138;2023-04-10T09:25:31;101307.69;;;21.79;45.24
12182;BME280;6154;51.550;12.138;2023-04-10T09:28:02;101304.19;;;21.89;42.24
12182;BME280;6154;51.550;12.138;2023-04-10T09:30:38;101293.84;;;21.94;43.73
12182;BME280;6154;51.550;12.138;2023-04-10T09:33:20;101300.38;;;21.91;41.61
12182;BME280;6154;51.550;12.138;2023-04-10T09:35:49;101294.09;;;22.21;41.90
12182;BME280;6154;51.550;12.138;2023-04-10T09:38:19;101289.44;;;21.93;43.58
12182;BME280;6154;51.550;12.138;2023-04-10T09:40:49;101290.03;;;21.96;44.31
12182;BME280;6154;51.550;12.138;2023-04-10T09:43:22;101285.78;;;22.03;43.73
12182;BME280;6154;51.550;12.138;2023-04-10T09:45:54;101284.47;;;22.28;44.13
12182;BME280;6154;51.550;12.138;2023-04-10T09:48:24;101279.50;;;22.33;44.40
12182;BME280;6154;51.550;12.138;2023-04-10T09:50:53;101274.56;;;22.38;43.75
12182;BME280;6154;51.550;12.138;2023-04-10T09:53:21;101263.66;;;22.00;42.38
12182;BME280;6154;51.550;12.138;2023-04-10T09:55:51;101266.53;;;22.08;43.50
12182;BME280;6154;51.550;12.138;2023-04-10T09:58:19;101269.84;;;22.31;43.18
12182;BME280;6154;51.550;12.138;2023-04-10T10:00:48;101265.75;;;22.27;43.70
12182;BME280;6154;51.550;12.138;2023-04-10T10:03:17;101262.00;;;22.08;42.13
12182;BME280;6154;51.550;12.138;2023-04-10T10:05:50;101248.28;;;22.31;43.17
12182;BME280;6154;51.550;12.138;2023-04-10T10:08:20;101250.53;;;22.16;42.99
12182;BME280;6154;51.550;12.138;2023-04-10T10:10:53;101232.66;;;22.54;43.10
12182;BME280;6154;51.550;12.138;2023-04-10T10:13:26;101237.91;;;22.26;42.37
12182;BME280;6154;51.550;12.138;2023-04-10T10:16:03;101233.94;;;22.50;42.25
12182;BME280;6154;51.550;12.138;2023-04-10T10:18:38;101226.84;;;22.39;41.08
12182;BME280;6154;51.550;12.138;2023-04-10T10:21:12;101226.28;;;22.84;42.31
12182;BME280;6154;51.550;12.138;2023-04-10T10:23:42;101218.00;;;23.05;42.99
12182;BME280;6154;51.550;12.138;2023-04-10T10:26:13;101206.63;;;23.11;42.46
12182;BME280;6154;51.550;12.138;2023-04-10T10:28:43;101215.19;;;22.77;42.48
12182;BME280;6154;51.550;12.138;2023-04-10T10:31:13;101202.94;;;23.12;42.74
12182;BME280;6154;51.550;12.138;2023-04-10T10:33:43;101202.94;;;23.12;42.54
12182;BME280;6154;51.550;12.138;2023-04-10T10:36:13;101198.88;;;23.35;42.30
12182;BME280;6154;51.550;12.138;2023-04-10T10:38:49;101186.91;;;23.38;42.02
12182;BME280;6154;51.550;12.138;2023-04-10T10:41:25;101195.12;;;23.09;41.29
12182;BME280;6154;51.550;12.138;2023-04-10T10:44:05;101188.88;;;23.45;40.98
12182;BME280;6154;51.550;12.138;2023-04-10T10:46:39;101188.59;;;23.48;39.85
12182;BME280;6154;51.550;12.138;2023-04-10T10:49:09;101179.66;;;23.38;41.37
12182;BME280;6154;51.550;12.138;2023-04-10T10:51:44;101179.78;;;23.46;41.20
12182;BME280;6154;51.550;12.138;2023-04-10T10:54:26;101171.41;;;23.77;41.38
12182;BME280;6154;51.550;12.138;2023-04-10T10:56:56;101164.34;;;23.66;39.90
12182;BME280;6154;51.550;12.138;2023-04-10T10:59:55;101166.47;;;23.90;41.64
12182;BME280;6154;51.550;12.138;2023-04-10T11:02:24;101162.50;;;23.67;38.85
12182;BME280;6154;51.550;12.138;2023-04-10T11:04:53;101165.94;;;23.59;41.63
12182;BME280;6154;51.550;12.138;2023-04-10T11:10:58;101149.94;;;23.38;39.03
12182;BME280;6154;51.550;12.138;2023-04-10T11:13:28;101150.12;;;23.55;39.25
12182;BME280;6154;51.550;12.138;2023-04-10T11:15:58;101146.91;;;23.78;41.51
12182;BME280;6154;51.550;12.138;2023-04-10T11:19:00;101138.87;;;24.22;41.41
12182;BME280;6154;51.550;12.138;2023-04-10T11:22:01;101131.75;;;24.03;38.17
12182;BME280;6154;51.550;12.138;2023-04-10T11:24:57;101126.53;;;24.20;37.86
12182;BME280;6154;51.550;12.138;2023-04-10T11:27:43;101124.44;;;24.49;38.18
12182;BME280;6154;51.550;12.138;2023-04-10T11:30:39;101126.31;;;24.31;38.20
12182;BME280;6154;51.550;12.138;2023-04-10T11:33:08;101114.53;;;24.40;37.91
12182;BME280;6154;51.550;12.138;2023-04-10T11:35:44;101117.56;;;24.37;41.31
12182;BME280;6154;51.550;12.138;2023-04-10T11:38:15;101113.97;;;24.54;40.71
12182;BME280;6154;51.550;12.138;2023-04-10T11:40:59;101113.59;;;25.01;40.56
12182;BME280;6154;51.550;12.138;2023-04-10T11:43:29;101104.28;;;24.96;37.79
12182;BME280;6154;51.550;12.138;2023-04-10T11:45:59;101115.75;;;25.15;39.79
12182;BME280;6154;51.550;12.138;2023-04-10T11:48:30;101107.25;;;25.10;40.29
12182;BME280;6154;51.550;12.138;2023-04-10T11:51:06;101099.44;;;25.07;41.00
12182;BME280;6154;51.550;12.138;2023-04-10T11:53:40;101091.63;;;25.04;39.14
12182;BME280;6154;51.550;12.138;2023-04-10T11:56:18;101090.50;;;24.89;40.66
12182;BME280;6154;51.550;12.138;2023-04-10T11:58:49;101081.66;;;24.79;38.84
12182;BME280;6154;51.550;12.138;2023-04-10T12:01:21;101080.25;;;24.75;40.40
12182;BME280;6154;51.550;12.138;2023-04-10T12:03:52;101064.13;;;25.33;40.90
12182;BME280;6154;51.550;12.138;2023-04-10T12:06:22;101069.47;;;25.59;40.40
12182;BME280;6154;51.550;12.138;2023-04-10T12:08:56;101057.81;;;25.75;40.31
12182;BME280;6154;51.550;12.138;2023-04-10T12:11:31;101055.38;;;25.47;40.46
12182;BME280;6154;51.550;12.138;2023-04-10T12:14:01;101039.63;;;25.51;38.73
12182;BME280;6154;51.550;12.138;2023-04-10T12:16:31;101050.13;;;25.54;39.38
12182;BME280;6154;51.550;12.138;2023-04-10T12:18:59;101034.53;;;25.48;40.25
12182;BME280;6154;51.550;12.138;2023-04-10T12:21:27;101030.25;;;25.29;39.38
12182;BME280;6154;51.550;12.138;2023-04-10T12:23:56;101025.06;;;25.52;39.58
12182;BME280;6154;51.550;12.138;2023-04-10T12:26:25;101021.84;;;25.57;40.10
12182;BME280;6154;51.550;12.138;2023-04-10T12:28:56;101023.09;;;25.12;39.42
12182;BME280;6154;51.550;12.138;2023-04-10T12:31:28;101018.94;;;25.00;39.24
12182;BME280;6154;51.550;12.138;2023-04-10T12:33:58;101011.56;;;25.10;38.88
12182;BME280;6154;51.550;12.138;2023-04-10T12:36:28;101000.28;;;25.31;40.14
12182;BME280;6154;51.550;12.138;2023-04-10T12:38:56;101003.09;;;25.13;39.03
12182;BME280;6154;51.550;12.138;2023-04-10T12:41:27;100993.25;;;25.04;39.68
12182;BME280;6154;51.550;12.138;2023-04-10T12:44:08;100996.84;;;25.12;39.41
12182;BME280;6154;51.550;12.138;2023-04-10T12:46:37;100983.13;;;25.14;36.58
12182;BME280;6154;51.550;12.138;2023-04-10T12:49:09;100980.59;;;25.20;39.01
12182;BME280;6154;51.550;12.138;2023-04-10T12:51:44;100976.88;;;25.21;39.59
12182;BME280;6154;51.550;12.138;2023-04-10T12:54:29;100973.97;;;25.07;37.88
12182;BME280;6154;51.550;12.138;2023-04-10T12:56:58;100964.53;;;24.85;36.39
12182;BME280;6154;51.550;12.138;2023-04-10T12:59:29;100964.00;;;25.07;39.14
12182;BME280;6154;51.550;12.138;2023-04-10T13:01:57;100957.91;;;25.21;39.14
12182;BME280;6154;51.550;12.138;2023-04-10T13:04:28;100952.69;;;25.28;38.86
12182;BME280;6154;51.550;12.138;2023-04-10T13:06:57;100941.66;;;25.30;39.77
12182;BME280;6154;51.550;12.138;2023-04-10T13:09:28;100937.97;;;25.47;39.42
12182;BME280;6154;51.550;12.138;2023-04-10T13:11:56;100930.78;;;25.13;38.35
12182;BME280;6154;51.550;12.138;2023-04-10T13:14:24;100930.09;;;25.03;39.53
12182;BME280;6154;51.550;12.138;2023-04-10T13:16:54;100919.63;;;25.08;39.38